createdAt,value
2023-03-11T00:00:22.387Z,5.70
2023-03-11T00:02:50.120Z,5.60
2023-03-11T00:05:19.465Z,5.60
2023-03-11T00:07:46.273Z,5.40
2023-03-11T00:10:17.315Z,5.40
2023-03-11T00:12:44.051Z,5.40
2023-03-11T00:15:11.117Z,5.40
2023-03-11T00:17:37.914Z,5.40
2023-03-11T00:20:07.008Z,5.40
2023-03-11T00:22:33.855Z,5.10
2023-03-11T00:25:00.649Z,4.80
2023-03-11T00:27:27.396Z,4.80
2023-03-11T00:29:54.119Z,4.20
2023-03-11T00:32:20.939Z,4.10
2023-03-11T00:34:47.780Z,4.10
2023-03-11T00:37:14.558Z,4.10
2023-03-11T00:39:41.298Z,4.10
2023-03-11T00:42:08.018Z,4.20
2023-03-11T00:44:34.753Z,3.90
2023-03-11T00:47:01.522Z,3.90
2023-03-11T00:49:28.327Z,3.90
2023-03-11T00:51:55.062Z,4.00
2023-03-11T00:54:21.918Z,4.20
2023-03-11T00:56:48.675Z,4.20
2023-03-11T00:59:15.412Z,4.20
2023-03-11T01:01:42.184Z,4.10
2023-03-11T01:04:09.007Z,4.20
2023-03-11T01:06:44.783Z,4.30
2023-03-11T01:09:12.224Z,4.30
2023-03-11T01:11:39.002Z,4.30
2023-03-11T01:14:05.783Z,4.40
2023-03-11T01:16:32.682Z,4.10
2023-03-11T01:18:59.405Z,3.70
2023-03-11T01:21:26.342Z,3.80
2023-03-11T01:23:53.047Z,4.00
2023-03-11T01:26:19.743Z,3.90
2023-03-11T01:28:47.262Z,3.70
2023-03-11T01:31:14.100Z,3.90
2023-03-11T01:33:40.957Z,4.10
2023-03-11T01:36:07.926Z,3.70
2023-03-11T01:38:34.720Z,3.50
2023-03-11T01:41:01.444Z,3.70
2023-03-11T01:43:37.268Z,3.80
2023-03-11T01:46:07.880Z,3.70
2023-03-11T01:48:34.701Z,3.70
2023-03-11T01:51:01.580Z,3.70
2023-03-11T01:53:28.431Z,3.70
2023-03-11T01:55:55.362Z,3.80
2023-03-11T01:58:24.563Z,3.30
2023-03-11T02:00:51.280Z,3.30
2023-03-11T02:03:21.754Z,3.30
2023-03-11T02:05:49.442Z,3.40
2023-03-11T02:08:16.169Z,3.40
2023-03-11T02:10:43.459Z,3.10
2023-03-11T02:13:10.747Z,3.10
2023-03-11T02:15:39.837Z,3.00
2023-03-11T02:18:07.712Z,2.90
2023-03-11T02:20:47.200Z,3.30
2023-03-11T02:23:15.197Z,3.10
2023-03-11T02:25:43.085Z,3.00
2023-03-11T02:28:11.533Z,3.20
2023-03-11T02:30:40.583Z,3.00
2023-03-11T02:33:07.898Z,3.00
2023-03-11T02:35:34.711Z,3.10
2023-03-11T02:38:01.477Z,3.20
2023-03-11T02:40:33.827Z,2.90
2023-03-11T02:43:01.812Z,3.00
2023-03-11T02:45:29.756Z,3.10
2023-03-11T02:47:58.036Z,3.40
2023-03-11T02:50:28.289Z,3.40
2023-03-11T02:52:54.982Z,3.30
2023-03-11T02:55:21.828Z,3.40
2023-03-11T02:57:48.589Z,3.30
2023-03-11T03:00:16.785Z,3.40
2023-03-11T03:02:44.414Z,3.60
2023-03-11T03:05:11.716Z,3.90
2023-03-11T03:07:38.560Z,3.90
2023-03-11T03:10:06.156Z,4.00
2023-03-11T03:12:32.871Z,4.00
2023-03-11T03:14:59.575Z,3.90
2023-03-11T03:17:26.399Z,3.70
2023-03-11T03:19:53.187Z,3.70
2023-03-11T03:22:19.979Z,3.70
2023-03-11T03:24:46.858Z,3.70
2023-03-11T03:27:13.582Z,3.60
2023-03-11T03:29:40.295Z,3.20
2023-03-11T03:32:07.263Z,3.40
2023-03-11T03:34:34.123Z,3.20
2023-03-11T03:37:01.004Z,3.00
2023-03-11T03:39:30.098Z,3.20
2023-03-11T03:41:57.351Z,3.40
2023-03-11T03:44:24.107Z,3.50
2023-03-11T03:46:50.840Z,3.50
2023-03-11T03:49:17.658Z,3.30
2023-03-11T03:51:44.376Z,3.40
2023-03-11T03:54:11.144Z,3.20
2023-03-11T03:56:37.849Z,3.40
2023-03-11T03:59:04.550Z,3.10
2023-03-11T04:01:31.248Z,3.30
2023-03-11T04:03:57.931Z,3.60
2023-03-11T04:06:26.545Z,4.60
2023-03-11T04:08:53.810Z,4.50
2023-03-11T04:11:20.673Z,4.70
2023-03-11T04:13:47.488Z,4.70
2023-03-11T04:16:16.830Z,4.80
2023-03-11T04:18:43.574Z,5.50
2023-03-11T04:21:10.269Z,5.10
2023-03-11T04:23:36.992Z,5.10
2023-03-11T04:26:03.759Z,5.60
2023-03-11T04:28:30.502Z,5.80
2023-03-11T04:30:57.197Z,5.70
2023-03-11T04:33:24.010Z,6.00
2023-03-11T04:35:50.822Z,6.20
2023-03-11T04:38:17.540Z,5.90
2023-03-11T04:40:49.625Z,5.70
2023-03-11T04:43:16.497Z,5.60
2023-03-11T04:45:43.240Z,5.50
2023-03-11T04:48:10.050Z,5.40
2023-03-11T04:50:37.113Z,5.90
2023-03-11T04:53:04.867Z,5.90
2023-03-11T04:55:31.675Z,6.00
2023-03-11T04:57:58.356Z,6.10
2023-03-11T05:00:25.337Z,5.80
2023-03-11T05:02:52.187Z,5.70
2023-03-11T05:05:19.725Z,6.00
2023-03-11T05:07:46.757Z,5.80
2023-03-11T05:10:14.048Z,6.10
2023-03-11T05:12:41.105Z,6.40
2023-03-11T05:15:08.125Z,6.20
2023-03-11T05:17:34.929Z,6.30
2023-03-11T05:20:01.680Z,6.40
2023-03-11T05:22:28.433Z,6.10
2023-03-11T05:24:55.158Z,6.00
2023-03-11T05:27:21.930Z,5.80
2023-03-11T05:29:48.624Z,5.70
2023-03-11T05:32:15.631Z,5.80
2023-03-11T05:34:42.456Z,5.80
2023-03-11T05:37:09.190Z,6.00
2023-03-11T05:39:37.777Z,5.70
2023-03-11T05:42:05.766Z,6.00
2023-03-11T05:44:32.699Z,6.00
2023-03-11T05:46:59.607Z,6.20
2023-03-11T05:49:26.571Z,6.30
2023-03-11T05:51:56.096Z,6.10
2023-03-11T05:54:24.204Z,5.90
2023-03-11T05:56:50.878Z,5.80
2023-03-11T05:59:18.185Z,5.80
2023-03-11T06:01:44.920Z,5.70
2023-03-11T06:04:11.888Z,5.60
2023-03-11T06:06:53.130Z,5.60
2023-03-11T06:09:19.840Z,5.70
2023-03-11T06:11:46.660Z,5.60
2023-03-11T06:14:16.766Z,5.50
2023-03-11T06:16:43.674Z,5.50
2023-03-11T06:21:47.011Z,5.60
2023-03-11T06:24:13.755Z,5.50
2023-03-11T06:26:42.008Z,5.50
2023-03-11T06:29:12.806Z,5.60
2023-03-11T06:31:40.355Z,5.60
2023-03-11T06:34:07.446Z,5.60
2023-03-11T06:36:39.457Z,5.60
2023-03-11T06:39:06.832Z,5.70
2023-03-11T06:41:35.123Z,5.70
2023-03-11T06:44:08.984Z,5.70
2023-03-11T06:46:48.906Z,5.70
2023-03-11T06:49:15.640Z,5.80
2023-03-11T06:51:42.707Z,5.90
2023-03-11T06:54:10.111Z,6.10
2023-03-11T06:56:37.849Z,6.00
2023-03-11T06:59:04.571Z,6.10
2023-03-11T07:01:32.152Z,6.00
2023-03-11T07:03:58.883Z,6.00
2023-03-11T07:06:26.615Z,6.00
2023-03-11T07:08:53.813Z,6.00
2023-03-11T07:11:20.496Z,6.10
2023-03-11T07:13:47.307Z,6.10
2023-03-11T07:16:15.884Z,6.10
2023-03-11T07:18:43.591Z,6.10
2023-03-11T07:21:12.540Z,6.20
2023-03-11T07:23:39.324Z,6.30
2023-03-11T07:26:08.038Z,6.20
2023-03-11T07:28:34.708Z,6.10
2023-03-11T07:31:06.194Z,6.20
2023-03-11T07:33:34.293Z,6.20
2023-03-11T07:36:04.711Z,6.20
2023-03-11T07:38:31.403Z,6.10
2023-03-11T07:40:59.292Z,6.00
2023-03-11T07:43:25.997Z,6.00
2023-03-11T07:45:52.825Z,6.00
2023-03-11T07:48:19.705Z,6.10
2023-03-11T07:50:46.365Z,6.10
2023-03-11T07:53:13.059Z,6.40
2023-03-11T07:55:39.827Z,6.50
2023-03-11T07:58:06.546Z,6.50
2023-03-11T08:00:33.202Z,6.70
2023-03-11T08:02:59.876Z,6.70
2023-03-11T08:05:26.530Z,6.70
2023-03-11T08:07:53.177Z,6.90
2023-03-11T08:10:19.870Z,7.00
2023-03-11T08:12:46.600Z,7.10
2023-03-11T08:15:13.279Z,7.20
2023-03-11T08:17:40.004Z,6.90
2023-03-11T08:20:08.914Z,7.30
2023-03-11T08:22:36.909Z,7.40
2023-03-11T08:25:03.797Z,7.30
2023-03-11T08:27:30.524Z,7.20
2023-03-11T08:29:58.183Z,7.30
2023-03-11T08:32:24.928Z,7.20
2023-03-11T08:34:51.663Z,7.50
2023-03-11T08:37:18.430Z,7.40
2023-03-11T08:39:45.084Z,7.20
2023-03-11T08:42:11.876Z,7.30
2023-03-11T08:44:39.001Z,7.50
2023-03-11T08:47:05.896Z,7.70
2023-03-11T08:49:32.589Z,7.70
2023-03-11T08:51:59.450Z,7.60
2023-03-11T08:54:26.101Z,7.50
2023-03-11T08:56:52.779Z,7.60
2023-03-11T08:59:19.497Z,7.60
2023-03-11T09:01:46.958Z,7.70
2023-03-11T09:04:13.900Z,7.90
2023-03-11T09:06:44.430Z,8.10
2023-03-11T09:09:14.538Z,8.10
2023-03-11T09:11:41.998Z,8.00
2023-03-11T09:14:08.723Z,7.70
2023-03-11T09:16:35.481Z,7.60
2023-03-11T09:19:06.915Z,7.40
2023-03-11T09:21:34.356Z,7.20
2023-03-11T09:24:01.322Z,7.50
2023-03-11T09:26:28.021Z,7.50
2023-03-11T09:28:54.714Z,7.40
2023-03-11T09:31:21.414Z,7.40
2023-03-11T09:33:48.405Z,7.30
2023-03-11T09:36:16.466Z,7.50
2023-03-11T09:38:43.591Z,7.60
2023-03-11T09:41:28.584Z,7.80
2023-03-11T09:44:02.989Z,7.80
2023-03-11T09:46:48.127Z,7.90
2023-03-11T09:49:33.633Z,8.10
2023-03-11T09:52:26.816Z,8.40
2023-03-11T09:54:54.785Z,8.40
2023-03-11T09:57:22.728Z,7.80
2023-03-11T09:59:59.449Z,7.90
2023-03-11T10:02:27.757Z,8.20
2023-03-11T10:04:54.554Z,8.60
2023-03-11T10:07:23.713Z,8.90
2023-03-11T10:09:57.877Z,8.50
2023-03-11T10:12:24.544Z,8.10
2023-03-11T10:15:06.551Z,8.20
2023-03-11T10:17:36.300Z,8.60
2023-03-11T10:20:07.432Z,9.00
2023-03-11T10:22:43.235Z,8.50
2023-03-11T10:25:17.006Z,8.70
2023-03-11T10:27:51.897Z,8.30
2023-03-11T10:30:18.556Z,9.10
2023-03-11T10:32:52.465Z,8.60
2023-03-11T10:35:19.162Z,8.70
2023-03-11T10:37:58.258Z,9.10
2023-03-11T10:40:24.922Z,8.70
2023-03-11T10:42:52.949Z,9.00
2023-03-11T10:45:20.999Z,8.90
2023-03-11T10:47:47.718Z,8.90
2023-03-11T10:50:18.313Z,9.10
2023-03-11T10:53:03.892Z,9.00
2023-03-11T10:55:30.594Z,9.40
2023-03-11T10:58:27.013Z,9.30
2023-03-11T11:01:05.336Z,9.70
2023-03-11T11:03:32.767Z,9.60
2023-03-11T11:06:04.248Z,9.00
2023-03-11T11:08:31.148Z,9.20
2023-03-11T11:10:59.603Z,8.60
2023-03-11T11:13:31.296Z,8.60
2023-03-11T11:15:58.004Z,8.90
2023-03-11T11:18:27.171Z,9.10
2023-03-11T11:20:53.864Z,9.40
2023-03-11T11:23:28.191Z,9.50
2023-03-11T11:25:59.249Z,9.30
2023-03-11T11:28:26.323Z,9.10
2023-03-11T11:30:57.211Z,9.10
2023-03-11T11:33:25.736Z,9.60
2023-03-11T11:35:54.244Z,8.90
2023-03-11T11:38:25.157Z,9.40
2023-03-11T11:40:52.983Z,9.40
2023-03-11T11:43:21.723Z,9.60
2023-03-11T11:46:00.628Z,9.30
2023-03-11T11:48:46.240Z,9.00
2023-03-11T11:51:25.510Z,9.10
2023-03-11T11:53:57.701Z,9.40
2023-03-11T11:56:25.552Z,8.60
2023-03-11T11:58:54.807Z,9.30
2023-03-11T12:01:27.587Z,9.50
2023-03-11T12:03:57.303Z,9.50
2023-03-11T12:06:24.010Z,9.60
2023-03-11T12:09:00.480Z,9.80
2023-03-11T12:11:34.349Z,9.70
2023-03-11T12:14:30.681Z,10.00
2023-03-11T12:16:58.827Z,9.40
2023-03-11T12:19:25.472Z,9.30
2023-03-11T12:21:55.241Z,9.30
2023-03-11T12:24:21.908Z,9.40
2023-03-11T12:26:49.571Z,10.00
2023-03-11T12:29:31.436Z,9.30
2023-03-11T12:31:59.807Z,9.60
2023-03-11T12:34:28.273Z,9.70
2023-03-11T12:36:57.229Z,9.70
2023-03-11T12:39:31.707Z,9.80
2023-03-11T12:42:10.872Z,9.80
2023-03-11T12:44:38.783Z,10.20
2023-03-11T12:47:08.277Z,9.50
2023-03-11T12:49:36.381Z,9.50
2023-03-11T12:52:06.090Z,9.50
2023-03-11T12:54:34.662Z,9.40
2023-03-11T12:57:02.933Z,9.50
2023-03-11T12:59:32.491Z,9.90
2023-03-11T13:02:17.478Z,9.90
2023-03-11T13:05:05.444Z,9.40
2023-03-11T13:07:37.346Z,9.80
2023-03-11T13:10:07.019Z,9.60
2023-03-11T13:12:47.329Z,9.90
2023-03-11T13:15:20.072Z,10.30
2023-03-11T13:18:03.539Z,9.60
2023-03-11T13:20:39.307Z,10.10
2023-03-11T13:23:20.047Z,9.70
2023-03-11T13:25:55.901Z,10.20
2023-03-11T13:28:47.306Z,9.80
2023-03-11T13:31:13.987Z,9.40
2023-03-11T13:34:00.925Z,10.10
2023-03-11T13:36:46.909Z,10.50
2023-03-11T13:39:25.789Z,10.40
2023-03-11T13:41:53.159Z,9.80
2023-03-11T13:44:19.879Z,10.50
2023-03-11T13:46:49.988Z,10.00
2023-03-11T13:49:26.019Z,9.70
2023-03-11T13:51:54.418Z,9.60
2023-03-11T13:54:32.874Z,9.30
2023-03-11T13:57:01.197Z,9.70
2023-03-11T13:59:29.631Z,9.70
2023-03-11T14:01:57.526Z,9.90
2023-03-11T14:04:26.902Z,10.20
2023-03-11T14:06:53.872Z,10.10
2023-03-11T14:16:21.815Z,10.60
2023-03-11T14:22:31.952Z,9.80
2023-03-11T14:28:52.541Z,10.30
2023-03-11T14:46:07.477Z,8.80
2023-03-11T15:49:39.856Z,7.70
2023-03-11T16:13:03.821Z,6.90
2023-03-11T16:15:32.008Z,6.90
2023-03-11T16:17:59.783Z,6.90
2023-03-11T16:20:27.682Z,6.80
2023-03-11T16:22:56.469Z,6.80
2023-03-11T16:25:37.932Z,6.70
2023-03-11T16:28:05.067Z,6.60
2023-03-11T16:30:32.658Z,6.50
2023-03-11T16:32:59.440Z,6.30
2023-03-11T16:35:26.554Z,6.30
2023-03-11T16:37:53.449Z,6.30
2023-03-11T16:40:21.752Z,6.30
2023-03-11T16:42:48.602Z,6.20
2023-03-11T16:45:16.425Z,6.20
2023-03-11T16:47:43.136Z,6.10
2023-03-11T16:50:10.289Z,6.00
2023-03-11T16:52:36.966Z,6.00
2023-03-11T16:55:03.897Z,5.90
2023-03-11T16:57:30.694Z,5.90
2023-03-11T16:59:58.196Z,5.80
2023-03-11T17:02:25.385Z,5.80
2023-03-11T17:04:52.178Z,5.70
2023-03-11T17:07:18.960Z,5.60
2023-03-11T17:09:45.628Z,5.60
2023-03-11T17:12:15.702Z,5.60
2023-03-11T17:14:42.618Z,5.40
2023-03-11T17:17:09.448Z,5.50
2023-03-11T17:19:36.166Z,5.50
2023-03-11T17:22:02.830Z,5.40
2023-03-11T17:24:29.835Z,5.30
2023-03-11T17:26:56.514Z,5.30
2023-03-11T17:29:23.189Z,5.30
2023-03-11T17:31:49.894Z,5.30
2023-03-11T17:34:16.914Z,5.30
2023-03-11T17:36:43.595Z,5.30
2023-03-11T17:39:10.229Z,5.30
2023-03-11T17:41:37.016Z,5.20
2023-03-11T17:44:03.776Z,5.20
2023-03-11T17:46:30.469Z,5.20
2023-03-11T17:48:57.206Z,5.10
2023-03-11T17:51:25.823Z,5.10
2023-03-11T17:53:53.775Z,5.10
2023-03-11T17:56:20.939Z,5.00
2023-03-11T17:58:47.807Z,5.00
2023-03-11T18:01:16.801Z,5.00
2023-03-11T18:03:43.697Z,5.00
2023-03-11T18:06:10.798Z,5.00
2023-03-11T18:08:37.628Z,4.90
2023-03-11T18:11:05.750Z,5.00
2023-03-11T18:13:32.915Z,4.90
2023-03-11T18:16:04.151Z,4.80
2023-03-11T18:18:31.934Z,4.90
2023-03-11T18:21:21.858Z,4.90
2023-03-11T18:23:48.795Z,4.90
2023-03-11T18:26:16.701Z,4.90
2023-03-11T18:28:43.597Z,4.90
2023-03-11T18:31:11.994Z,4.90
2023-03-11T18:33:39.029Z,4.90
2023-03-11T18:36:16.247Z,4.80
2023-03-11T18:38:43.251Z,4.70
2023-03-11T18:41:10.128Z,4.70
2023-03-11T18:43:37.149Z,4.70
2023-03-11T18:46:07.085Z,4.80
2023-03-11T18:48:34.008Z,4.80
2023-03-11T18:51:00.680Z,4.80
2023-03-11T18:53:27.392Z,4.80
2023-03-11T18:56:01.067Z,4.80
2023-03-11T18:58:28.119Z,4.80
2023-03-11T19:00:54.790Z,4.70
2023-03-11T19:03:21.760Z,4.70
2023-03-11T19:05:50.828Z,4.70
2023-03-11T19:08:17.908Z,4.60
2023-03-11T19:10:44.631Z,4.30
2023-03-11T19:13:11.267Z,4.40
2023-03-11T19:15:41.268Z,4.20
2023-03-11T19:18:08.750Z,3.70
2023-03-11T19:20:35.529Z,4.00
2023-03-11T19:23:02.408Z,4.00
2023-03-11T19:25:34.284Z,4.10
2023-03-11T19:28:00.993Z,3.70
2023-03-11T19:30:28.876Z,3.80
2023-03-11T19:32:55.715Z,3.90
2023-03-11T19:35:23.129Z,4.00
2023-03-11T19:37:50.244Z,4.00
2023-03-11T19:40:17.479Z,4.00
2023-03-11T19:42:44.269Z,4.00
2023-03-11T19:45:11.358Z,4.10
2023-03-11T19:47:38.372Z,4.30
2023-03-11T19:50:05.424Z,4.50
2023-03-11T19:52:32.160Z,4.50
2023-03-11T19:54:59.072Z,4.40
2023-03-11T19:57:25.749Z,4.30
2023-03-11T19:59:52.480Z,4.30
2023-03-11T20:02:19.244Z,4.30
2023-03-11T20:04:46.009Z,4.10
2023-03-11T20:07:12.827Z,3.80
2023-03-11T20:09:39.649Z,4.10
2023-03-11T20:12:06.529Z,4.00
2023-03-11T20:14:33.323Z,3.70
2023-03-11T20:17:00.026Z,3.70
2023-03-11T20:19:26.862Z,3.80
2023-03-11T20:21:53.526Z,3.90
2023-03-11T20:24:20.189Z,4.10
2023-03-11T20:26:47.572Z,4.00
2023-03-11T20:29:15.543Z,4.00
2023-03-11T20:31:42.297Z,4.00
2023-03-11T20:34:09.562Z,4.20
2023-03-11T20:36:36.337Z,4.20
2023-03-11T20:39:03.371Z,4.30
2023-03-11T20:41:33.471Z,4.00
2023-03-11T20:44:00.142Z,3.80
2023-03-11T20:46:26.973Z,3.40
2023-03-11T20:48:53.758Z,3.20
2023-03-11T20:51:20.964Z,3.20
2023-03-11T20:53:48.037Z,2.80
2023-03-11T20:56:16.034Z,3.00
2023-03-11T20:58:44.577Z,3.00
2023-03-11T21:01:17.206Z,3.00
2023-03-11T21:03:44.274Z,2.90
2023-03-11T21:06:15.228Z,2.90
2023-03-11T21:08:42.417Z,3.70
2023-03-11T21:11:09.202Z,4.00
2023-03-11T21:13:35.935Z,4.10
2023-03-11T21:16:03.499Z,4.00
2023-03-11T21:18:30.286Z,3.30
2023-03-11T21:20:57.021Z,3.30
2023-03-11T21:23:23.889Z,3.10
2023-03-11T21:25:56.766Z,3.00
2023-03-11T21:28:23.435Z,3.00
2023-03-11T21:30:57.013Z,3.00
2023-03-11T21:33:23.855Z,3.10
2023-03-11T21:35:54.969Z,3.10
2023-03-11T21:38:22.537Z,3.20
2023-03-11T21:40:49.990Z,2.90
2023-03-11T21:43:17.031Z,2.90
2023-03-11T21:45:43.842Z,3.10
2023-03-11T21:48:11.065Z,3.20
2023-03-11T21:50:38.579Z,3.30
2023-03-11T21:53:05.420Z,2.70
2023-03-11T21:55:32.379Z,2.60
2023-03-11T21:57:59.143Z,2.60
2023-03-11T22:00:25.801Z,2.70
2023-03-11T22:02:52.618Z,2.30
2023-03-11T22:05:19.546Z,2.20
2023-03-11T22:07:46.194Z,2.30
2023-03-11T22:10:12.996Z,2.00
2023-03-11T22:12:39.812Z,1.90
2023-03-11T22:15:06.702Z,2.10
2023-03-11T22:17:33.674Z,2.00
2023-03-11T22:20:00.369Z,1.70
2023-03-11T22:22:27.176Z,1.90
2023-03-11T22:24:53.857Z,2.20
2023-03-11T22:27:20.491Z,2.30
2023-03-11T22:29:47.157Z,1.90
2023-03-11T22:32:13.826Z,1.80
2023-03-11T22:34:41.740Z,2.00
2023-03-11T22:37:08.523Z,2.00
2023-03-11T22:39:35.238Z,2.10
2023-03-11T22:42:02.342Z,2.00
2023-03-11T22:44:28.994Z,1.80
2023-03-11T22:46:55.695Z,1.80
2023-03-11T22:49:22.448Z,2.20
2023-03-11T22:51:49.094Z,2.50
2023-03-11T22:54:15.795Z,2.60
2023-03-11T22:56:43.018Z,2.80
2023-03-11T22:59:09.705Z,2.90
2023-03-11T23:01:36.388Z,2.70
2023-03-11T23:04:03.115Z,2.70
2023-03-11T23:06:29.914Z,2.70
2023-03-11T23:08:56.555Z,2.70
2023-03-11T23:11:23.455Z,2.60
2023-03-11T23:13:50.657Z,2.70
2023-03-11T23:16:18.887Z,2.60
2023-03-11T23:18:46.412Z,2.60
2023-03-11T23:21:14.036Z,2.50
2023-03-11T23:23:40.694Z,2.50
2023-03-11T23:26:08.621Z,2.20
2023-03-11T23:28:35.267Z,1.90
2023-03-11T23:31:05.026Z,1.90
2023-03-11T23:33:31.725Z,1.90
2023-03-11T23:36:05.763Z,2.00
2023-03-11T23:38:32.596Z,1.90
2023-03-11T23:40:59.669Z,1.80
2023-03-11T23:43:26.574Z,1.70
2023-03-11T23:45:53.511Z,1.90
2023-03-11T23:48:20.256Z,1.60
2023-03-11T23:50:47.642Z,1.70
2023-03-11T23:53:14.533Z,1.60
2023-03-11T23:55:41.190Z,1.50
2023-03-11T23:58:07.863Z,1.40
